Metar z pełnej godziny Komunikat METAR ze strony awiacja.imgw.pl Metar G00 EPPO METAR EPPO 230200Z 19010KT CAVOK 10/07 Q0989 =